Kankakee, IL (60901)

11:12 AM CDT on August 31, 2016 (GMT -0500)
Quail hallow | | Change Station

Elev 669 ft 41.16 °N, 87.84 °W | Updated 8 minutes ago

Overcast
Overcast
80.8 °F
Feels Like 84 °F
N
2.7
Wind Variable Wind from NNE

Today
High -- | Low -- °F
--% Chance of Precip.
Yesterday
High -- | Low -- °F
Precip. -- in
Pressure 30.06 in
Visibility 10.0 miles
Clouds Mostly Cloudy 1500 ft
Overcast 4500 ft
Heat Index 84 °F
Dew Point 70 °F
Humidity 70%
Rainfall 0.00 in
Snow Depth Not available.
6:17 AM 7:24 PM
Waning Crescent, 1% visible
METAR KIKK 311555Z AUTO 33007KT 10SM BKN015 OVC045 26/21 A3006 RMK AO2 T02570209
Pressure 30.06 in
Visibility 10.0 miles
Clouds Mostly Cloudy 1500 ft
Overcast 4500 ft
Heat Index 84 °F
Dew Point 70 °F
Humidity 70%
Rainfall 0.00 in
Snow Depth Not available.
6:17 AM 7:24 PM
Waning Crescent, 1% visible
METAR KIKK 311555Z AUTO 33007KT 10SM BKN015 OVC045 26/21 A3006 RMK AO2 T02570209

10-Day Weather Forecast

Almanac

Astronomy

Aug. 31, 2016 Rise Set
Actual Time
Civil Twilight
Nautical Twilight
Astronomical Twilight
Moon
Length of Visible Light
Length of Day
Tomorrow will be .
, % of the Moon is Illuminated

Today's Extremes

State Highs State Lows

Community

WunderPhotos

Upload Photos

1,936,105 photos uploaded!

WunderBlog® & News

Nearby

Air Quality

  Air Quality AQ Index Pollutant
Not available.

Snow Depth

Station Depth Elevation

Earthquake Activity

City Distance Mag. Time & Date
Minimum magnitude displayed is 2.5.

Coastal Water Temperatures

Place Temperature

Stations

Nearby Weather Stations

Station Location Temp. Windchill Dew Point Humidity Wind Precip. Elev Updated Type
                   

Watches & Warnings

There are currently no watches in effect.